createdAt,value
2023-01-06T17:05:47.843Z,9.70
2023-01-06T17:08:18.397Z,9.68
2023-01-06T17:10:47.038Z,9.71
2023-01-06T17:13:34.774Z,9.74
2023-01-06T17:16:14.573Z,9.77
2023-01-06T17:18:53.057Z,9.66
2023-01-06T17:21:26.383Z,9.77
2023-01-06T17:23:58.727Z,9.74
2023-01-06T17:26:29.278Z,9.65
2023-01-06T17:29:01.474Z,9.81
2023-01-06T17:31:36.548Z,9.72
2023-01-06T17:34:12.748Z,9.79
2023-01-06T17:36:44.916Z,9.80
2023-01-06T17:39:21.306Z,9.82
2023-01-06T17:41:49.631Z,9.74
2023-01-06T17:44:22.400Z,9.77
2023-01-06T17:46:51.378Z,9.86
2023-01-06T17:49:38.493Z,9.83
2023-01-06T17:52:17.567Z,9.79
2023-01-06T17:55:11.746Z,9.92
2023-01-06T17:57:42.656Z,9.85
2023-01-06T18:00:23.785Z,9.92
2023-01-06T18:02:56.899Z,9.91
2023-01-06T18:06:05.151Z,9.90
2023-01-06T18:08:37.782Z,9.86
2023-01-06T18:11:24.251Z,9.79
2023-01-06T18:13:53.020Z,9.82
2023-01-06T18:16:32.452Z,9.89
2023-01-06T18:19:18.071Z,9.89
2023-01-06T18:21:46.576Z,9.85
2023-01-06T18:24:22.446Z,9.78
2023-01-06T18:26:54.883Z,9.86
2023-01-06T18:29:25.774Z,9.76
2023-01-06T18:31:55.383Z,9.84
2023-01-06T18:34:29.737Z,9.84
2023-01-06T18:36:59.758Z,9.78
2023-01-06T18:39:31.890Z,9.85
2023-01-06T18:42:09.374Z,9.89
2023-01-06T18:44:40.964Z,9.96
2023-01-06T18:47:15.653Z,9.94
2023-01-06T18:49:44.476Z,9.92
2023-01-06T18:52:40.853Z,9.90
2023-01-06T18:55:25.988Z,10.04
2023-01-06T18:58:03.810Z,10.00
2023-01-06T19:00:36.260Z,10.10
2023-01-06T19:03:37.567Z,10.09
2023-01-06T19:06:47.157Z,10.08
2023-01-06T19:09:25.142Z,10.11
2023-01-06T19:12:16.932Z,10.07
2023-01-06T19:14:48.269Z,10.14
2023-01-06T19:17:23.979Z,10.05
2023-01-06T19:19:53.589Z,10.17
2023-01-06T19:22:25.281Z,10.05
2023-01-06T19:25:01.429Z,10.12
2023-01-06T19:27:44.098Z,10.08
2023-01-06T19:30:35.635Z,10.16
2023-01-06T19:33:36.516Z,10.09
2023-01-06T19:36:44.197Z,10.04
2023-01-06T19:39:35.171Z,10.07
2023-01-06T19:42:17.255Z,10.09
2023-01-06T19:44:51.658Z,10.08
2023-01-06T19:47:24.128Z,10.12
2023-01-06T19:50:00.233Z,10.13
2023-01-06T19:52:34.629Z,10.12
2023-01-06T19:55:28.465Z,10.10
2023-01-06T19:57:59.049Z,10.05
2023-01-06T20:00:32.233Z,10.01
2023-01-06T20:03:03.667Z,10.07
2023-01-06T20:05:32.998Z,10.05
2023-01-06T20:08:04.448Z,10.07
2023-01-06T20:10:33.144Z,10.12
2023-01-06T20:13:01.731Z,10.12
2023-01-06T20:15:31.643Z,10.17
2023-01-06T20:17:59.909Z,10.15
2023-01-06T20:20:28.375Z,10.16
2023-01-06T20:22:56.774Z,10.12
2023-01-06T20:25:27.243Z,10.26
2023-01-06T20:27:55.577Z,10.24
2023-01-06T20:30:24.308Z,10.20
2023-01-06T20:32:54.106Z,10.17
2023-01-06T20:35:22.538Z,10.19
2023-01-06T20:37:50.873Z,10.24
2023-01-06T20:40:19.548Z,10.22
2023-01-06T20:42:47.942Z,10.23
2023-01-06T20:45:16.150Z,10.27
2023-01-06T20:47:45.039Z,10.26
2023-01-06T20:50:14.965Z,10.17
2023-01-06T20:52:45.495Z,10.18
2023-01-06T20:55:15.550Z,10.22
2023-01-06T20:57:43.882Z,10.29
2023-01-06T21:00:13.563Z,10.19
2023-01-06T21:02:42.098Z,10.19
2023-01-06T21:05:11.582Z,10.23
2023-01-06T21:07:48.982Z,10.31
2023-01-06T21:10:20.047Z,10.35
2023-01-06T21:12:48.677Z,10.36
2023-01-06T21:15:17.316Z,10.35
2023-01-06T21:17:45.755Z,10.24
2023-01-06T21:20:16.859Z,10.23
2023-01-06T21:22:48.675Z,10.40
2023-01-06T21:25:19.946Z,10.31
2023-01-06T21:27:50.337Z,10.30
2023-01-06T21:30:19.356Z,10.39
2023-01-06T21:32:48.163Z,10.35
2023-01-06T21:35:16.811Z,10.38
2023-01-06T21:37:46.940Z,10.33
2023-01-06T21:40:15.404Z,10.31
2023-01-06T21:43:01.331Z,10.39
2023-01-06T21:45:29.989Z,10.36
2023-01-06T21:47:59.329Z,10.26
2023-01-06T21:50:32.425Z,10.33
2023-01-06T21:53:07.583Z,10.33
2023-01-06T21:58:43.249Z,10.28
2023-01-06T22:01:11.970Z,10.37
2023-01-06T22:03:40.693Z,10.26
2023-01-06T22:06:11.077Z,10.28
2023-01-06T22:08:42.799Z,10.30
2023-01-06T22:11:12.172Z,10.38
2023-01-06T22:13:42.287Z,10.40
2023-01-06T22:16:11.107Z,10.39
2023-01-06T22:18:39.587Z,10.41
2023-01-06T22:21:08.673Z,10.26
2023-01-06T22:23:38.905Z,10.28
2023-01-06T22:26:09.430Z,10.27
2023-01-06T22:28:38.432Z,10.20
2023-01-06T22:31:10.461Z,10.23
2023-01-06T22:33:39.436Z,10.28
2023-01-06T22:36:08.551Z,10.32
2023-01-06T22:38:37.268Z,10.31
2023-01-06T22:41:07.325Z,10.19
2023-01-06T22:43:37.282Z,10.20
2023-01-06T22:46:05.637Z,10.20
2023-01-06T22:48:33.959Z,10.27
2023-01-06T22:51:04.453Z,10.26
2023-01-06T22:53:33.931Z,10.28
2023-01-06T22:56:03.888Z,10.22
2023-01-06T22:58:32.463Z,10.16
2023-01-06T23:01:02.473Z,10.19
2023-01-06T23:03:31.362Z,10.14
2023-01-06T23:06:04.672Z,10.11
2023-01-06T23:08:35.216Z,10.18
2023-01-06T23:11:06.299Z,10.19
2023-01-06T23:13:36.504Z,10.19
2023-01-06T23:16:11.235Z,10.16
2023-01-06T23:18:45.809Z,10.10
2023-01-06T23:21:16.105Z,10.17
2023-01-06T23:23:47.538Z,10.10
2023-01-06T23:26:18.221Z,10.19
2023-01-06T23:28:47.792Z,10.16
2023-01-06T23:31:21.405Z,10.22
2023-01-06T23:33:51.514Z,10.12
2023-01-06T23:36:22.267Z,10.20
2023-01-06T23:38:55.981Z,10.18
2023-01-06T23:41:27.284Z,10.24
2023-01-06T23:43:57.678Z,10.20
2023-01-06T23:46:33.031Z,10.16
2023-01-06T23:49:03.401Z,10.19
2023-01-06T23:51:32.537Z,10.19
2023-01-06T23:54:08.702Z,10.12
2023-01-06T23:56:39.535Z,10.27
2023-01-06T23:59:10.758Z,10.22
